createdAt,value
2023-03-11T00:00:23.618Z,65.26
2023-03-11T00:05:24.864Z,65.66
2023-03-11T00:10:24.767Z,65.80
2023-03-11T00:15:22.444Z,66.13
2023-03-11T00:20:20.373Z,65.99
2023-03-11T00:25:18.547Z,69.74
2023-03-11T00:30:16.253Z,72.69
2023-03-11T00:35:15.439Z,74.54
2023-03-11T00:40:12.873Z,75.49
2023-03-11T00:45:11.133Z,75.57
2023-03-11T00:50:09.073Z,74.81
2023-03-11T00:55:06.982Z,75.24
2023-03-11T01:00:06.528Z,74.94
2023-03-11T01:05:03.759Z,74.45
2023-03-11T01:10:00.531Z,74.79
2023-03-11T01:14:59.649Z,74.97
2023-03-11T01:19:56.395Z,75.02
2023-03-11T01:24:53.152Z,75.94
2023-03-11T01:29:50.214Z,76.18
2023-03-11T01:34:48.875Z,75.70
2023-03-11T01:39:45.686Z,74.19
2023-03-11T01:44:43.367Z,74.64
2023-03-11T01:49:41.579Z,73.01
2023-03-11T01:54:39.948Z,72.60
2023-03-11T01:59:39.327Z,72.46
2023-03-11T02:04:37.425Z,70.78
2023-03-11T02:09:34.392Z,71.02
2023-03-11T02:14:35.377Z,71.16
2023-03-11T02:19:38.884Z,70.78
2023-03-11T02:24:40.987Z,70.30
2023-03-11T02:29:41.753Z,70.81
2023-03-11T02:34:39.737Z,70.45
2023-03-11T02:39:40.013Z,70.07
2023-03-11T02:44:40.954Z,69.80
2023-03-11T02:49:39.855Z,69.82
2023-03-11T02:54:36.868Z,69.47
2023-03-11T02:59:34.223Z,70.78
2023-03-11T03:04:31.977Z,70.69
2023-03-11T03:09:30.356Z,70.78
2023-03-11T03:14:27.257Z,70.42
2023-03-11T03:19:24.190Z,70.15
2023-03-11T03:24:22.028Z,70.05
2023-03-11T03:29:19.731Z,70.60
2023-03-11T03:34:19.328Z,69.96
2023-03-11T03:39:18.132Z,70.00
2023-03-11T03:44:17.811Z,70.20
2023-03-11T03:49:17.989Z,70.32
2023-03-11T03:54:15.579Z,70.49
2023-03-11T03:59:15.180Z,70.63
2023-03-11T04:04:19.003Z,72.51
2023-03-11T04:09:15.857Z,74.86
2023-03-11T04:14:13.370Z,76.67
2023-03-11T04:19:17.976Z,76.70
2023-03-11T04:24:17.328Z,77.21
2023-03-11T04:29:14.069Z,78.24
2023-03-11T04:34:15.315Z,78.05
2023-03-11T04:39:16.461Z,81.06
2023-03-11T04:44:16.562Z,81.80
2023-03-11T04:49:14.006Z,82.74
2023-03-11T04:54:10.868Z,83.12
2023-03-11T04:59:09.705Z,82.35
2023-03-11T05:04:10.465Z,83.47
2023-03-11T05:09:07.991Z,81.46
2023-03-11T05:14:10.317Z,81.07
2023-03-11T05:19:23.500Z,83.01
2023-03-11T05:24:21.362Z,83.43
2023-03-11T05:29:18.472Z,85.75
2023-03-11T05:34:16.639Z,86.02
2023-03-11T05:39:13.684Z,86.16
2023-03-11T05:44:11.372Z,88.99
2023-03-11T05:49:08.319Z,91.31
2023-03-11T05:54:10.942Z,92.45
2023-03-11T05:59:11.588Z,93.54
2023-03-11T06:04:10.057Z,96.09
2023-03-11T06:09:07.318Z,96.58
2023-03-11T06:14:06.690Z,97.45
2023-03-11T06:19:03.479Z,98.14
2023-03-11T06:24:19.377Z,97.01
2023-03-11T06:29:18.776Z,96.75
2023-03-11T06:34:17.820Z,97.15
2023-03-11T06:39:15.674Z,97.83
2023-03-11T06:44:15.415Z,97.59
2023-03-11T06:49:13.523Z,97.63
2023-03-11T06:54:11.815Z,96.73
2023-03-11T06:59:08.741Z,96.76
2023-03-11T07:04:05.758Z,95.27
2023-03-11T07:09:06.961Z,96.61
2023-03-11T07:14:08.016Z,95.67
2023-03-11T07:19:09.175Z,94.74
2023-03-11T07:24:06.912Z,94.22
2023-03-11T07:29:06.811Z,95.20
2023-03-11T07:34:04.648Z,94.92
2023-03-11T07:39:05.201Z,95.43
2023-03-11T07:44:05.790Z,96.04
2023-03-11T07:49:03.053Z,93.86
2023-03-11T07:54:00.169Z,93.04
2023-03-11T07:58:58.029Z,91.36
2023-03-11T08:03:58.763Z,91.25
2023-03-11T08:08:55.516Z,90.56
2023-03-11T08:13:57.256Z,90.78
2023-03-11T08:18:54.006Z,88.79
2023-03-11T08:23:51.515Z,86.25
2023-03-11T08:28:48.482Z,83.17
2023-03-11T08:33:45.971Z,83.56
2023-03-11T08:38:42.909Z,81.99
2023-03-11T08:43:41.723Z,83.45
2023-03-11T08:48:40.436Z,83.10
2023-03-11T08:53:37.547Z,83.17
2023-03-11T08:58:35.993Z,83.07
2023-03-11T09:03:34.777Z,83.38
2023-03-11T09:08:31.782Z,80.02
2023-03-11T09:13:34.142Z,78.74
2023-03-11T09:18:33.283Z,76.98
2023-03-11T09:23:31.299Z,77.33
2023-03-11T09:28:35.971Z,74.50
2023-03-11T09:33:36.650Z,75.76
2023-03-11T09:38:34.321Z,73.64
2023-03-11T09:43:41.267Z,74.52
2023-03-11T09:48:41.887Z,73.29
2023-03-11T09:53:43.770Z,72.71
2023-03-11T09:58:50.200Z,72.96
2023-03-11T10:03:47.638Z,71.38
2023-03-11T10:08:47.424Z,70.07
2023-03-11T10:13:46.221Z,68.37
2023-03-11T10:18:49.925Z,69.34
2023-03-11T10:23:56.367Z,69.17
2023-03-11T10:29:00.516Z,68.18
2023-03-11T10:34:02.492Z,69.37
2023-03-11T10:39:05.452Z,68.69
2023-03-11T10:44:04.597Z,70.67
2023-03-11T10:49:09.355Z,70.35
2023-03-11T10:54:10.754Z,69.21
2023-03-11T10:59:27.194Z,68.64
2023-03-11T11:04:32.184Z,66.79
2023-03-11T11:09:32.030Z,66.78
2023-03-11T11:14:46.494Z,67.13
2023-03-11T11:19:45.904Z,67.06
2023-03-11T11:24:49.403Z,66.23
2023-03-11T11:29:47.832Z,65.39
2023-03-11T11:34:53.395Z,66.09
2023-03-11T11:39:53.797Z,65.90
2023-03-11T11:45:02.142Z,66.85
2023-03-11T11:50:06.306Z,65.69
2023-03-11T11:55:18.952Z,66.57
2023-03-11T12:00:19.934Z,65.94
2023-03-11T12:05:20.897Z,65.38
2023-03-11T12:10:24.214Z,65.84
2023-03-11T12:15:24.192Z,65.90
2023-03-11T12:20:29.586Z,65.97
2023-03-11T12:25:49.265Z,64.78
2023-03-11T12:30:55.023Z,66.41
2023-03-11T12:35:55.360Z,65.16
2023-03-11T12:41:07.976Z,64.41
2023-03-11T12:46:07.394Z,64.21
2023-03-11T12:51:07.960Z,64.04
2023-03-11T12:56:37.338Z,63.40
2023-03-11T13:01:47.446Z,61.11
2023-03-11T13:12:50.090Z,57.75
2023-03-11T13:17:59.846Z,57.61
2023-03-11T13:23:10.993Z,57.50
2023-03-11T13:28:32.405Z,58.83
2023-03-11T13:33:47.289Z,58.26
2023-03-11T13:39:11.042Z,57.13
2023-03-11T13:44:13.230Z,58.29
2023-03-11T13:54:47.407Z,59.17
2023-03-11T13:59:59.897Z,58.74
2023-03-11T14:05:05.273Z,55.44
2023-03-11T14:10:28.670Z,55.67
2023-03-11T14:15:43.501Z,55.55
2023-03-11T14:20:58.275Z,57.20
2023-03-11T14:26:07.338Z,58.17
2023-03-11T14:31:08.129Z,59.08
2023-03-11T14:36:24.387Z,60.56
2023-03-11T14:41:25.408Z,61.20
2023-03-11T14:46:28.584Z,61.90
2023-03-11T14:51:28.765Z,63.62
2023-03-11T14:56:27.988Z,64.30
2023-03-11T15:01:25.705Z,65.05
2023-03-11T15:06:31.367Z,65.14
2023-03-11T15:11:55.116Z,63.37
2023-03-11T15:17:48.551Z,62.66
2023-03-11T15:23:29.985Z,62.94
2023-03-11T15:28:51.965Z,63.12
2023-03-11T15:34:21.450Z,62.66
2023-03-11T15:45:20.889Z,63.59
2023-03-11T15:50:46.762Z,61.75
2023-03-11T15:55:51.763Z,59.54
2023-03-11T16:00:50.909Z,57.03
2023-03-11T16:05:53.485Z,59.80
2023-03-11T16:10:56.569Z,61.73
2023-03-11T16:15:58.371Z,59.53
2023-03-11T16:20:57.603Z,59.51
2023-03-11T16:26:01.730Z,59.37
2023-03-11T16:31:14.994Z,59.63
2023-03-11T16:36:12.016Z,58.70
2023-03-11T16:41:09.537Z,55.77
2023-03-11T16:46:11.781Z,54.78
2023-03-11T16:51:11.876Z,54.72
2023-03-11T16:56:14.677Z,53.48
2023-03-11T17:01:12.210Z,53.46
2023-03-11T17:06:12.477Z,54.74
2023-03-11T17:11:34.030Z,57.30
2023-03-11T17:16:52.954Z,56.96
2023-03-11T17:21:58.498Z,57.39
2023-03-11T17:27:03.642Z,56.05
2023-03-11T17:32:17.691Z,56.46
2023-03-11T17:37:24.798Z,58.04
2023-03-11T17:42:27.156Z,58.88
2023-03-11T17:47:37.023Z,60.85
2023-03-11T17:52:34.997Z,61.84
2023-03-11T17:57:44.492Z,61.58
2023-03-11T18:02:44.336Z,60.97
2023-03-11T18:07:43.317Z,60.91
2023-03-11T18:12:47.044Z,60.43
2023-03-11T18:17:46.228Z,59.85
2023-03-11T18:22:46.211Z,59.81
2023-03-11T18:27:45.902Z,59.51
2023-03-11T18:32:43.150Z,59.18
2023-03-11T18:37:51.233Z,58.71
2023-03-11T18:42:53.774Z,58.45
2023-03-11T18:47:50.719Z,59.02
2023-03-11T18:52:54.484Z,60.34
2023-03-11T18:57:54.804Z,60.22
2023-03-11T19:02:56.694Z,59.67
2023-03-11T19:07:53.746Z,60.33
2023-03-11T19:12:52.111Z,59.64
2023-03-11T19:18:04.309Z,59.61
2023-03-11T19:23:05.472Z,60.83
2023-03-11T19:28:03.822Z,61.05
2023-03-11T19:33:05.796Z,61.93
2023-03-11T19:38:04.431Z,62.20
2023-03-11T19:43:07.152Z,62.10
2023-03-11T19:48:13.197Z,61.48
2023-03-11T19:53:16.034Z,61.60
2023-03-11T19:58:14.195Z,60.95
2023-03-11T20:03:14.894Z,61.15
2023-03-11T20:08:17.884Z,60.06
2023-03-11T20:13:16.915Z,60.89
2023-03-11T20:18:14.960Z,60.33
2023-03-11T20:23:26.145Z,60.05
2023-03-11T20:28:29.207Z,59.87
2023-03-11T20:33:28.987Z,59.24
2023-03-11T20:38:27.980Z,58.43
2023-03-11T20:43:30.419Z,59.72
2023-03-11T20:48:27.644Z,59.00
2023-03-11T20:53:27.585Z,58.56
2023-03-11T20:58:25.683Z,58.39
2023-03-11T21:03:24.227Z,59.15
2023-03-11T21:08:23.249Z,58.66
2023-03-11T21:13:22.817Z,57.98
2023-03-11T21:18:19.827Z,59.34
2023-03-11T21:23:21.900Z,59.06
2023-03-11T21:28:20.607Z,58.77
2023-03-11T21:33:40.416Z,59.48
2023-03-11T21:38:42.331Z,59.91
2023-03-11T21:43:41.945Z,60.21
2023-03-11T21:48:39.599Z,60.39
2023-03-11T21:53:36.686Z,60.38
2023-03-11T21:58:33.986Z,61.37
2023-03-11T22:03:34.804Z,62.29
2023-03-11T22:08:36.787Z,61.98
2023-03-11T22:13:33.879Z,62.15
2023-03-11T22:18:37.245Z,61.90
2023-03-11T22:23:36.138Z,61.95
2023-03-11T22:28:34.908Z,62.46
2023-03-11T22:33:31.714Z,62.15
2023-03-11T22:38:32.647Z,61.57
2023-03-11T22:43:32.313Z,60.33
2023-03-11T22:48:29.279Z,60.98
2023-03-11T22:53:33.406Z,60.87
2023-03-11T22:58:31.053Z,61.00
2023-03-11T23:03:29.140Z,61.73
2023-03-11T23:08:31.521Z,62.07
2023-03-11T23:13:28.612Z,63.58
2023-03-11T23:18:29.029Z,64.67
2023-03-11T23:23:25.926Z,64.18
2023-03-11T23:28:22.686Z,63.81
2023-03-11T23:33:21.716Z,63.86
2023-03-11T23:38:23.678Z,64.23
2023-03-11T23:43:20.593Z,64.70
2023-03-11T23:48:21.258Z,65.31
2023-03-11T23:53:22.616Z,64.08
2023-03-11T23:58:22.474Z,64.71
